sensor_id;sensor_type;location;lat;lon;timestamp;pressure;altitude;pressure_sealevel;temperature;humidity
32109;BME280;18624;50.042;8.436;2023-04-26T00:00:28;100639.66;;;6.33;76.02
32109;BME280;18624;50.042;8.436;2023-04-26T00:02:55;100630.38;;;6.13;76.09
32109;BME280;18624;50.042;8.436;2023-04-26T00:05:24;100650.22;;;6.06;77.17
32109;BME280;18624;50.042;8.436;2023-04-26T00:07:50;100632.34;;;5.98;77.90
32109;BME280;18624;50.042;8.436;2023-04-26T00:10:17;100601.63;;;5.69;78.18
32109;BME280;18624;50.042;8.436;2023-04-26T00:12:43;100625.31;;;5.82;78.97
32109;BME280;18624;50.042;8.436;2023-04-26T00:15:10;100643.19;;;5.87;78.89
32109;BME280;18624;50.042;8.436;2023-04-26T00:17:37;100641.28;;;5.77;79.10
32109;BME280;18624;50.042;8.436;2023-04-26T00:20:03;100651.34;;;5.80;79.12
32109;BME280;18624;50.042;8.436;2023-04-26T00:22:33;100594.25;;;5.37;79.30
32109;BME280;18624;50.042;8.436;2023-04-26T00:24:59;100601.63;;;5.33;79.35
32109;BME280;18624;50.042;8.436;2023-04-26T00:27:26;100633.88;;;5.56;78.94
32109;BME280;18624;50.042;8.436;2023-04-26T00:29:53;100624.19;;;5.58;79.57
32109;BME280;18624;50.042;8.436;2023-04-26T00:32:20;100640.88;;;5.61;79.16
32109;BME280;18624;50.042;8.436;2023-04-26T00:34:46;100623.00;;;5.59;79.17
32109;BME280;18624;50.042;8.436;2023-04-26T00:37:12;100642.03;;;5.84;78.75
32109;BME280;18624;50.042;8.436;2023-04-26T00:39:39;100624.16;;;5.80;78.06
32109;BME280;18624;50.042;8.436;2023-04-26T00:42:05;100612.91;;;5.78;78.16
32109;BME280;18624;50.042;8.436;2023-04-26T00:44:32;100602.78;;;5.75;78.38
32109;BME280;18624;50.042;8.436;2023-04-26T00:46:58;100643.22;;;6.08;77.93
32109;BME280;18624;50.042;8.436;2023-04-26T00:49:25;100630.78;;;6.00;77.46
32109;BME280;18624;50.042;8.436;2023-04-26T00:51:52;100645.53;;;6.10;76.83
32109;BME280;18624;50.042;8.436;2023-04-26T00:54:20;100614.44;;;5.79;76.29
32109;BME280;18624;50.042;8.436;2023-04-26T00:56:46;100635.03;;;5.94;76.82
32109;BME280;18624;50.042;8.436;2023-04-26T00:59:13;100546.09;;;5.30;76.43
32109;BME280;18624;50.042;8.436;2023-04-26T01:01:40;100640.88;;;5.93;77.34
32109;BME280;18624;50.042;8.436;2023-04-26T01:04:07;100642.44;;;5.94;77.86
32109;BME280;18624;50.042;8.436;2023-04-26T01:06:34;100607.06;;;5.69;77.34
32109;BME280;18624;50.042;8.436;2023-04-26T01:09:04;100604.34;;;5.62;77.16
32109;BME280;18624;50.042;8.436;2023-04-26T01:11:35;100640.88;;;5.78;77.21
32109;BME280;18624;50.042;8.436;2023-04-26T01:14:05;100642.41;;;5.76;77.92
32109;BME280;18624;50.042;8.436;2023-04-26T01:16:34;100636.59;;;5.70;77.52
32109;BME280;18624;50.042;8.436;2023-04-26T01:19:10;100620.66;;;5.47;77.77
32109;BME280;18624;50.042;8.436;2023-04-26T01:21:40;100645.16;;;5.54;78.67
32109;BME280;18624;50.042;8.436;2023-04-26T01:24:11;100644.38;;;5.54;78.15
32109;BME280;18624;50.042;8.436;2023-04-26T01:26:39;100544.91;;;4.92;78.93
32109;BME280;18624;50.042;8.436;2023-04-26T01:29:16;100626.09;;;5.37;78.58
32109;BME280;18624;50.042;8.436;2023-04-26T01:31:43;100625.31;;;5.40;78.94
32109;BME280;18624;50.042;8.436;2023-04-26T01:34:09;100640.06;;;5.42;79.28
32109;BME280;18624;50.042;8.436;2023-04-26T01:36:36;100638.53;;;5.38;79.91
32109;BME280;18624;50.042;8.436;2023-04-26T01:39:03;100626.06;;;5.26;80.01
32109;BME280;18624;50.042;8.436;2023-04-26T01:41:29;100647.06;;;5.36;79.70
32109;BME280;18624;50.042;8.436;2023-04-26T01:43:58;100556.91;;;4.80;80.42
32109;BME280;18624;50.042;8.436;2023-04-26T01:46:25;100636.94;;;5.29;79.74
32109;BME280;18624;50.042;8.436;2023-04-26T01:48:52;100629.97;;;5.28;80.51
32109;BME280;18624;50.042;8.436;2023-04-26T01:51:21;100610.16;;;5.14;80.48
32109;BME280;18624;50.042;8.436;2023-04-26T01:53:48;100624.13;;;5.30;80.73
32109;BME280;18624;50.042;8.436;2023-04-26T01:56:14;100647.09;;;5.50;80.72
32109;BME280;18624;50.042;8.436;2023-04-26T01:58:41;100653.69;;;5.56;80.32
32109;BME280;18624;50.042;8.436;2023-04-26T02:01:08;100596.56;;;5.21;79.78
32109;BME280;18624;50.042;8.436;2023-04-26T02:03:35;100654.47;;;5.61;79.47
32109;BME280;18624;50.042;8.436;2023-04-26T02:06:02;100657.19;;;5.61;79.32
32109;BME280;18624;50.042;8.436;2023-04-26T02:08:29;100631.16;;;5.45;79.31
32109;BME280;18624;50.042;8.436;2023-04-26T02:10:56;100640.88;;;5.57;78.41
32109;BME280;18624;50.042;8.436;2023-04-26T02:13:22;100619.50;;;5.38;77.83
32109;BME280;18624;50.042;8.436;2023-04-26T02:15:49;100658.72;;;5.58;78.62
32109;BME280;18624;50.042;8.436;2023-04-26T02:18:17;100649.41;;;5.55;78.66
32109;BME280;18624;50.042;8.436;2023-04-26T02:20:48;100588.00;;;5.08;78.80
32109;BME280;18624;50.042;8.436;2023-04-26T02:23:15;100659.09;;;5.42;78.85
32109;BME280;18624;50.042;8.436;2023-04-26T02:25:44;100657.94;;;5.40;79.87
32109;BME280;18624;50.042;8.436;2023-04-26T02:28:11;100650.94;;;5.39;79.96
32109;BME280;18624;50.042;8.436;2023-04-26T02:30:38;100647.84;;;5.37;80.56
32109;BME280;18624;50.042;8.436;2023-04-26T02:33:04;100526.56;;;4.57;80.13
32109;BME280;18624;50.042;8.436;2023-04-26T02:35:31;100584.09;;;4.95;80.27
32109;BME280;18624;50.042;8.436;2023-04-26T02:37:57;100659.13;;;5.46;80.09
32109;BME280;18624;50.042;8.436;2023-04-26T02:40:24;100655.22;;;5.43;79.50
32109;BME280;18624;50.042;8.436;2023-04-26T02:42:51;100570.88;;;4.82;80.02
32109;BME280;18624;50.042;8.436;2023-04-26T02:45:17;100661.44;;;5.37;79.38
32109;BME280;18624;50.042;8.436;2023-04-26T02:47:43;100650.56;;;5.33;79.97
32109;BME280;18624;50.042;8.436;2023-04-26T02:50:10;100642.38;;;5.22;80.33
32109;BME280;18624;50.042;8.436;2023-04-26T02:52:37;100647.81;;;5.29;80.40
32109;BME280;18624;50.042;8.436;2023-04-26T02:55:04;100643.16;;;5.33;80.88
32109;BME280;18624;50.042;8.436;2023-04-26T02:57:31;100646.66;;;5.34;80.71
32109;BME280;18624;50.042;8.436;2023-04-26T02:59:58;100625.69;;;5.20;80.50
32109;BME280;18624;50.042;8.436;2023-04-26T03:02:25;100621.00;;;5.21;80.25
32109;BME280;18624;50.042;8.436;2023-04-26T03:04:52;100585.63;;;4.92;80.30
32109;BME280;18624;50.042;8.436;2023-04-26T03:07:20;100600.81;;;5.07;79.92
32109;BME280;18624;50.042;8.436;2023-04-26T03:09:46;100542.13;;;4.60;79.49
32109;BME280;18624;50.042;8.436;2023-04-26T03:12:13;100586.78;;;4.88;80.25
32109;BME280;18624;50.042;8.436;2023-04-26T03:14:39;100571.25;;;4.74;80.33
32109;BME280;18624;50.042;8.436;2023-04-26T03:17:06;100567.69;;;4.63;79.47
32109;BME280;18624;50.042;8.436;2023-04-26T03:19:33;100570.81;;;4.61;80.66
32109;BME280;18624;50.042;8.436;2023-04-26T03:22:01;100554.06;;;4.45;80.70
32109;BME280;18624;50.042;8.436;2023-04-26T03:24:27;100514.41;;;4.12;81.16
32109;BME280;18624;50.042;8.436;2023-04-26T03:26:54;100578.09;;;4.43;81.45
32109;BME280;18624;50.042;8.436;2023-04-26T03:29:21;100625.13;;;4.68;82.35
32109;BME280;18624;50.042;8.436;2023-04-26T03:31:48;100541.56;;;4.15;82.46
32109;BME280;18624;50.042;8.436;2023-04-26T03:34:14;100529.50;;;4.13;82.66
32109;BME280;18624;50.042;8.436;2023-04-26T03:36:41;100632.94;;;4.80;82.60
32109;BME280;18624;50.042;8.436;2023-04-26T03:39:07;100643.06;;;4.87;82.63
32109;BME280;18624;50.042;8.436;2023-04-26T03:41:35;100573.50;;;4.50;82.20
32109;BME280;18624;50.042;8.436;2023-04-26T03:44:05;100483.69;;;3.90;82.71
32109;BME280;18624;50.042;8.436;2023-04-26T03:46:32;100538.88;;;4.26;82.74
32109;BME280;18624;50.042;8.436;2023-04-26T03:48:59;100566.09;;;4.47;82.24
32109;BME280;18624;50.042;8.436;2023-04-26T03:51:25;100597.59;;;4.70;81.97
32109;BME280;18624;50.042;8.436;2023-04-26T03:53:53;100637.28;;;4.96;82.03
32109;BME280;18624;50.042;8.436;2023-04-26T03:56:20;100612.38;;;4.83;81.84
32109;BME280;18624;50.042;8.436;2023-04-26T03:58:47;100575.41;;;4.46;82.22
32109;BME280;18624;50.042;8.436;2023-04-26T04:01:14;100616.25;;;4.75;81.30
32109;BME280;18624;50.042;8.436;2023-04-26T04:03:41;100651.19;;;4.83;82.44
32109;BME280;18624;50.042;8.436;2023-04-26T04:06:08;100632.16;;;4.80;81.92
32109;BME280;18624;50.042;8.436;2023-04-26T04:08:34;100549.72;;;4.26;82.30
32109;BME280;18624;50.042;8.436;2023-04-26T04:11:01;100584.28;;;4.40;82.95
32109;BME280;18624;50.042;8.436;2023-04-26T04:13:28;100574.16;;;4.29;83.45
32109;BME280;18624;50.042;8.436;2023-04-26T04:15:54;100580.38;;;4.30;83.08
32109;BME280;18624;50.042;8.436;2023-04-26T04:18:21;100595.91;;;4.33;82.64
32109;BME280;18624;50.042;8.436;2023-04-26T04:20:47;100572.97;;;4.20;83.25
32109;BME280;18624;50.042;8.436;2023-04-26T04:23:14;100611.41;;;4.36;82.76
32109;BME280;18624;50.042;8.436;2023-04-26T04:25:41;100647.03;;;4.24;84.86
32109;BME280;18624;50.042;8.436;2023-04-26T04:28:10;100596.69;;;3.71;85.93
32109;BME280;18624;50.042;8.436;2023-04-26T04:30:37;100596.16;;;3.51;88.16
32109;BME280;18624;50.042;8.436;2023-04-26T04:33:04;100661.03;;;3.81;89.27
32109;BME280;18624;50.042;8.436;2023-04-26T04:35:32;100617.53;;;3.64;89.49
32109;BME280;18624;50.042;8.436;2023-04-26T04:38:02;100648.31;;;3.89;89.12
32109;BME280;18624;50.042;8.436;2023-04-26T04:40:29;100582.28;;;3.64;89.03
32109;BME280;18624;50.042;8.436;2023-04-26T04:42:56;100669.53;;;4.28;88.56
32109;BME280;18624;50.042;8.436;2023-04-26T04:45:24;100672.66;;;4.34;87.87
32109;BME280;18624;50.042;8.436;2023-04-26T04:47:52;100643.06;;;4.14;88.41
32109;BME280;18624;50.042;8.436;2023-04-26T04:50:22;100683.22;;;4.49;87.12
32109;BME280;18624;50.042;8.436;2023-04-26T04:52:48;100648.59;;;4.32;86.65
32109;BME280;18624;50.042;8.436;2023-04-26T04:55:15;100630.34;;;4.25;86.94
32109;BME280;18624;50.042;8.436;2023-04-26T04:57:43;100687.56;;;4.65;87.29
32109;BME280;18624;50.042;8.436;2023-04-26T05:00:11;100645.84;;;4.21;88.24
32109;BME280;18624;50.042;8.436;2023-04-26T05:02:46;100652.13;;;4.40;88.03
32109;BME280;18624;50.042;8.436;2023-04-26T05:05:14;100689.13;;;4.66;87.79
32109;BME280;18624;50.042;8.436;2023-04-26T05:07:40;100642.47;;;4.42;87.03
32109;BME280;18624;50.042;8.436;2023-04-26T05:10:07;100659.22;;;4.58;86.13
32109;BME280;18624;50.042;8.436;2023-04-26T05:12:34;100690.00;;;4.88;85.85
32109;BME280;18624;50.042;8.436;2023-04-26T05:15:02;100622.31;;;4.43;85.31
32109;BME280;18624;50.042;8.436;2023-04-26T05:17:31;100702.06;;;4.97;86.31
32109;BME280;18624;50.042;8.436;2023-04-26T05:20:02;100674.06;;;4.79;86.57
32109;BME280;18624;50.042;8.436;2023-04-26T05:22:32;100660.13;;;4.84;86.25
32109;BME280;18624;50.042;8.436;2023-04-26T05:25:00;100675.69;;;5.01;85.91
32109;BME280;18624;50.042;8.436;2023-04-26T05:27:27;100676.09;;;5.03;85.98
32109;BME280;18624;50.042;8.436;2023-04-26T05:30:13;100685.06;;;5.18;85.35
32109;BME280;18624;50.042;8.436;2023-04-26T05:33:06;100702.56;;;5.28;84.20
32109;BME280;18624;50.042;8.436;2023-04-26T05:35:43;100717.75;;;5.43;84.71
32109;BME280;18624;50.042;8.436;2023-04-26T05:38:09;100674.19;;;5.22;83.79
32109;BME280;18624;50.042;8.436;2023-04-26T05:40:36;100684.31;;;5.28;83.85
32109;BME280;18624;50.042;8.436;2023-04-26T05:43:02;100722.41;;;5.53;84.60
32109;BME280;18624;50.042;8.436;2023-04-26T05:45:29;100674.59;;;5.31;85.38
32109;BME280;18624;50.042;8.436;2023-04-26T05:47:58;100717.78;;;5.57;84.85
32109;BME280;18624;50.042;8.436;2023-04-26T05:50:25;100676.56;;;5.27;85.31
32109;BME280;18624;50.042;8.436;2023-04-26T05:52:51;100681.22;;;5.30;85.68
32109;BME280;18624;50.042;8.436;2023-04-26T05:55:19;100728.66;;;5.57;85.87
32109;BME280;18624;50.042;8.436;2023-04-26T05:57:47;100690.16;;;5.34;85.53
32109;BME280;18624;50.042;8.436;2023-04-26T06:00:14;100680.44;;;5.29;85.19
32109;BME280;18624;50.042;8.436;2023-04-26T06:02:42;100738.41;;;5.73;84.60
32109;BME280;18624;50.042;8.436;2023-04-26T06:05:13;100740.72;;;5.85;84.97
32109;BME280;18624;50.042;8.436;2023-04-26T06:07:41;100733.81;;;5.95;84.76
32109;BME280;18624;50.042;8.436;2023-04-26T06:10:07;100737.28;;;6.06;84.93
32109;BME280;18624;50.042;8.436;2023-04-26T06:12:34;100730.31;;;6.08;88.06
32109;BME280;18624;50.042;8.436;2023-04-26T06:15:00;100738.84;;;6.11;89.04
32109;BME280;18624;50.042;8.436;2023-04-26T06:17:29;100743.88;;;5.98;89.01
32109;BME280;18624;50.042;8.436;2023-04-26T06:19:55;100754.41;;;5.99;88.90
32109;BME280;18624;50.042;8.436;2023-04-26T06:22:22;100743.13;;;6.12;87.83
32109;BME280;18624;50.042;8.436;2023-04-26T06:24:49;100735.75;;;6.26;87.71
32109;BME280;18624;50.042;8.436;2023-04-26T06:27:15;100652.94;;;5.77;86.94
32109;BME280;18624;50.042;8.436;2023-04-26T06:29:45;100718.25;;;6.31;82.61
32109;BME280;18624;50.042;8.436;2023-04-26T06:32:14;100707.75;;;6.22;81.69
32109;BME280;18624;50.042;8.436;2023-04-26T06:34:41;100751.22;;;6.69;80.63
32109;BME280;18624;50.042;8.436;2023-04-26T06:37:10;100754.69;;;6.83;78.47
32109;BME280;18624;50.042;8.436;2023-04-26T06:39:40;100758.19;;;6.88;77.97
32109;BME280;18624;50.042;8.436;2023-04-26T06:42:07;100757.06;;;6.78;78.10
32109;BME280;18624;50.042;8.436;2023-04-26T06:44:54;100757.03;;;6.85;78.83
32109;BME280;18624;50.042;8.436;2023-04-26T06:47:20;100750.00;;;6.98;79.93
32109;BME280;18624;50.042;8.436;2023-04-26T06:49:47;100732.06;;;6.97;78.09
32109;BME280;18624;50.042;8.436;2023-04-26T06:52:13;100730.44;;;7.14;78.34
32109;BME280;18624;50.042;8.436;2023-04-26T06:54:40;100745.97;;;7.28;79.69
32109;BME280;18624;50.042;8.436;2023-04-26T06:57:22;100731.56;;;7.27;81.26
32109;BME280;18624;50.042;8.436;2023-04-26T06:59:48;100699.28;;;7.15;79.96
32109;BME280;18624;50.042;8.436;2023-04-26T07:02:14;100743.16;;;7.46;75.54
32109;BME280;18624;50.042;8.436;2023-04-26T07:04:41;100748.53;;;7.56;73.31
32109;BME280;18624;50.042;8.436;2023-04-26T07:07:08;100747.34;;;7.65;72.62
32109;BME280;18624;50.042;8.436;2023-04-26T07:09:38;100744.94;;;7.74;73.77
32109;BME280;18624;50.042;8.436;2023-04-26T07:12:04;100751.38;;;8.01;74.53
32109;BME280;18624;50.042;8.436;2023-04-26T07:14:31;100751.16;;;8.30;73.25
32109;BME280;18624;50.042;8.436;2023-04-26T07:16:57;100752.59;;;8.45;66.76
32109;BME280;18624;50.042;8.436;2023-04-26T07:19:24;100738.09;;;8.52;67.76
32109;BME280;18624;50.042;8.436;2023-04-26T07:21:50;100749.16;;;8.79;69.52
32109;BME280;18624;50.042;8.436;2023-04-26T07:24:16;100751.63;;;9.00;70.71
32109;BME280;18624;50.042;8.436;2023-04-26T07:26:43;100751.75;;;9.24;69.25
32109;BME280;18624;50.042;8.436;2023-04-26T07:29:09;100702.34;;;9.07;69.60
32109;BME280;18624;50.042;8.436;2023-04-26T07:31:36;100746.78;;;9.46;66.79
32109;BME280;18624;50.042;8.436;2023-04-26T07:34:02;100740.78;;;9.54;66.32
32109;BME280;18624;50.042;8.436;2023-04-26T07:36:29;100742.63;;;9.64;65.48
32109;BME280;18624;50.042;8.436;2023-04-26T07:38:56;100742.91;;;9.70;64.80
32109;BME280;18624;50.042;8.436;2023-04-26T07:41:23;100654.19;;;9.13;61.76
32109;BME280;18624;50.042;8.436;2023-04-26T07:43:49;100622.94;;;9.15;64.33
32109;BME280;18624;50.042;8.436;2023-04-26T07:46:16;100572.84;;;8.94;62.14
32109;BME280;18624;50.042;8.436;2023-04-26T07:48:43;100672.31;;;9.58;61.92
32109;BME280;18624;50.042;8.436;2023-04-26T07:51:10;100744.41;;;10.02;59.49
32109;BME280;18624;50.042;8.436;2023-04-26T07:53:38;100736.59;;;10.00;59.95
32109;BME280;18624;50.042;8.436;2023-04-26T07:56:05;100662.41;;;9.41;58.65
32109;BME280;18624;50.042;8.436;2023-04-26T07:58:33;100736.69;;;9.93;59.16
32109;BME280;18624;50.042;8.436;2023-04-26T08:01:00;100736.59;;;10.00;59.36
32109;BME280;18624;50.042;8.436;2023-04-26T08:03:27;100737.00;;;9.99;58.02
32109;BME280;18624;50.042;8.436;2023-04-26T08:05:54;100649.78;;;9.50;57.66
32109;BME280;18624;50.042;8.436;2023-04-26T08:08:21;100692.31;;;9.82;57.44
32109;BME280;18624;50.042;8.436;2023-04-26T08:10:48;100744.19;;;9.89;56.91
32109;BME280;18624;50.042;8.436;2023-04-26T08:13:14;100712.38;;;9.72;56.57
32109;BME280;18624;50.042;8.436;2023-04-26T08:15:41;100706.31;;;9.60;56.51
32109;BME280;18624;50.042;8.436;2023-04-26T08:18:07;100726.03;;;9.75;58.55
32109;BME280;18624;50.042;8.436;2023-04-26T08:20:34;100685.09;;;9.68;57.59
32109;BME280;18624;50.042;8.436;2023-04-26T08:23:00;100742.63;;;10.15;55.27
32109;BME280;18624;50.042;8.436;2023-04-26T08:25:27;100743.09;;;10.10;54.53
32109;BME280;18624;50.042;8.436;2023-04-26T08:27:53;100667.09;;;9.67;55.75
32109;BME280;18624;50.042;8.436;2023-04-26T08:30:20;100656.09;;;9.71;52.11
32109;BME280;18624;50.042;8.436;2023-04-26T08:32:46;100742.69;;;10.35;52.36
32109;BME280;18624;50.042;8.436;2023-04-26T08:35:13;100723.47;;;10.38;51.33
32109;BME280;18624;50.042;8.436;2023-04-26T08:37:39;100668.38;;;10.09;50.44
32109;BME280;18624;50.042;8.436;2023-04-26T08:40:07;100729.00;;;10.58;51.93
32109;BME280;18624;50.042;8.436;2023-04-26T08:42:42;100657.66;;;10.19;51.16
32109;BME280;18624;50.042;8.436;2023-04-26T08:45:15;100440.69;;;8.54;50.01
32109;BME280;18624;50.042;8.436;2023-04-26T08:47:43;100730.31;;;10.50;53.14
32109;BME280;18624;50.042;8.436;2023-04-26T08:50:13;100630.22;;;9.75;51.44
32109;BME280;18624;50.042;8.436;2023-04-26T08:52:41;100723.47;;;10.38;51.38
32109;BME280;18624;50.042;8.436;2023-04-26T08:55:09;100731.81;;;10.31;52.10
32109;BME280;18624;50.042;8.436;2023-04-26T08:57:35;100644.63;;;9.79;52.43
32109;BME280;18624;50.042;8.436;2023-04-26T09:00:03;100718.88;;;10.32;52.20
32109;BME280;18624;50.042;8.436;2023-04-26T09:02:51;100637.06;;;9.87;49.82
32109;BME280;18624;50.042;8.436;2023-04-26T09:05:19;100684.44;;;10.31;50.95
32109;BME280;18624;50.042;8.436;2023-04-26T09:07:53;100682.41;;;10.35;52.81
32109;BME280;18624;50.042;8.436;2023-04-26T09:10:21;100691.16;;;10.50;50.78
32109;BME280;18624;50.042;8.436;2023-04-26T09:12:52;100710.84;;;10.84;51.00
32109;BME280;18624;50.042;8.436;2023-04-26T09:15:23;100696.72;;;10.86;50.47
32109;BME280;18624;50.042;8.436;2023-04-26T09:17:50;100674.22;;;10.95;51.56
32109;BME280;18624;50.042;8.436;2023-04-26T09:20:25;100707.53;;;11.49;51.27
32109;BME280;18624;50.042;8.436;2023-04-26T09:23:07;100661.28;;;11.31;48.21
32109;BME280;18624;50.042;8.436;2023-04-26T09:25:34;100712.03;;;11.76;49.23
32109;BME280;18624;50.042;8.436;2023-04-26T09:28:01;100709.63;;;11.78;48.34
32109;BME280;18624;50.042;8.436;2023-04-26T09:30:29;100676.47;;;11.52;49.00
32109;BME280;18624;50.042;8.436;2023-04-26T09:32:58;100658.03;;;11.36;48.68
32109;BME280;18624;50.042;8.436;2023-04-26T09:38:04;100702.31;;;11.55;47.73
32109;BME280;18624;50.042;8.436;2023-04-26T09:40:41;100695.44;;;11.47;49.36
32109;BME280;18624;50.042;8.436;2023-04-26T09:43:13;100695.94;;;11.41;49.04
32109;BME280;18624;50.042;8.436;2023-04-26T09:45:49;100695.25;;;11.37;49.08
32109;BME280;18624;50.042;8.436;2023-04-26T09:48:27;100602.59;;;10.73;48.00
32109;BME280;18624;50.042;8.436;2023-04-26T09:50:57;100698.44;;;11.36;47.89
32109;BME280;18624;50.042;8.436;2023-04-26T09:53:41;100661.69;;;11.13;47.84
32109;BME280;18624;50.042;8.436;2023-04-26T09:58:38;100700.53;;;11.28;48.45
32109;BME280;18624;50.042;8.436;2023-04-26T10:01:09;100642.50;;;10.94;47.56
32109;BME280;18624;50.042;8.436;2023-04-26T10:03:37;100675.59;;;11.03;47.64
32109;BME280;18624;50.042;8.436;2023-04-26T10:06:04;100694.44;;;11.21;49.44
32109;BME280;18624;50.042;8.436;2023-04-26T10:08:31;100605.75;;;10.71;49.19
32109;BME280;18624;50.042;8.436;2023-04-26T10:11:02;100605.03;;;10.87;49.07
32109;BME280;18624;50.042;8.436;2023-04-26T10:13:32;100642.28;;;11.21;48.33
32109;BME280;18624;50.042;8.436;2023-04-26T10:16:00;100690.81;;;11.60;47.75
32109;BME280;18624;50.042;8.436;2023-04-26T10:18:33;100618.47;;;11.18;47.97
32109;BME280;18624;50.042;8.436;2023-04-26T10:21:13;100645.34;;;11.43;45.82
32109;BME280;18624;50.042;8.436;2023-04-26T10:23:42;100667.91;;;11.50;46.13
32109;BME280;18624;50.042;8.436;2023-04-26T10:26:51;100677.28;;;11.53;48.06
32109;BME280;18624;50.042;8.436;2023-04-26T10:29:23;100665.91;;;11.34;47.43
32109;BME280;18624;50.042;8.436;2023-04-26T10:34:31;100617.41;;;11.11;48.19
32109;BME280;18624;50.042;8.436;2023-04-26T10:37:16;100680.09;;;11.49;47.62
32109;BME280;18624;50.042;8.436;2023-04-26T10:39:44;100670.97;;;11.52;48.37
32109;BME280;18624;50.042;8.436;2023-04-26T10:42:25;100670.50;;;11.57;47.79
32109;BME280;18624;50.042;8.436;2023-04-26T10:44:57;100669.44;;;11.51;45.32
32109;BME280;18624;50.042;8.436;2023-04-26T10:47:33;100667.53;;;11.48;45.44
32109;BME280;18624;50.042;8.436;2023-04-26T10:50:09;100661.28;;;11.48;46.65
32109;BME280;18624;50.042;8.436;2023-04-26T10:58:28;100593.78;;;11.34;46.75
32109;BME280;18624;50.042;8.436;2023-04-26T11:03:36;100651.97;;;11.94;45.40
32109;BME280;18624;50.042;8.436;2023-04-26T11:06:08;100588.13;;;11.57;44.76
32109;BME280;18624;50.042;8.436;2023-04-26T11:08:35;100630.25;;;11.83;45.17
32109;BME280;18624;50.042;8.436;2023-04-26T11:13:29;100604.09;;;11.46;45.35
32109;BME280;18624;50.042;8.436;2023-04-26T11:16:01;100624.31;;;11.69;45.58
32109;BME280;18624;50.042;8.436;2023-04-26T11:18:31;100622.34;;;11.69;45.81
32109;BME280;18624;50.042;8.436;2023-04-26T11:20:59;100548.00;;;11.31;46.46
32109;BME280;18624;50.042;8.436;2023-04-26T11:23:29;100594.44;;;11.71;44.57
32109;BME280;18624;50.042;8.436;2023-04-26T11:25:59;100601.31;;;11.79;45.82
32109;BME280;18624;50.042;8.436;2023-04-26T11:28:29;100632.03;;;12.06;45.54
32109;BME280;18624;50.042;8.436;2023-04-26T11:31:02;100624.91;;;12.09;45.42
32109;BME280;18624;50.042;8.436;2023-04-26T11:33:29;100547.28;;;11.59;43.83
32109;BME280;18624;50.042;8.436;2023-04-26T11:35:56;100618.19;;;12.10;43.94
32109;BME280;18624;50.042;8.436;2023-04-26T11:38:24;100614.25;;;12.11;44.54
32109;BME280;18624;50.042;8.436;2023-04-26T11:41:03;100623.16;;;12.15;43.99
32109;BME280;18624;50.042;8.436;2023-04-26T11:43:34;100620.84;;;12.13;45.58
32109;BME280;18624;50.042;8.436;2023-04-26T11:46:02;100621.97;;;12.16;45.09
32109;BME280;18624;50.042;8.436;2023-04-26T11:48:29;100628.56;;;12.19;44.68
32109;BME280;18624;50.042;8.436;2023-04-26T11:50:57;100628.47;;;12.22;44.74
32109;BME280;18624;50.042;8.436;2023-04-26T11:53:34;100496.78;;;11.40;44.34
32109;BME280;18624;50.042;8.436;2023-04-26T11:56:00;100590.16;;;12.02;44.46
32109;BME280;18624;50.042;8.436;2023-04-26T11:58:27;100609.88;;;12.13;44.14
32109;BME280;18624;50.042;8.436;2023-04-26T12:00:55;100607.16;;;11.97;43.99
32109;BME280;18624;50.042;8.436;2023-04-26T12:03:22;100608.72;;;11.98;44.54
32109;BME280;18624;50.042;8.436;2023-04-26T12:05:55;100541.91;;;11.39;42.55
32109;BME280;18624;50.042;8.436;2023-04-26T12:08:26;100604.16;;;11.75;43.07
32109;BME280;18624;50.042;8.436;2023-04-26T12:10:53;100611.19;;;11.76;43.82
32109;BME280;18624;50.042;8.436;2023-04-26T12:13:19;100549.03;;;11.37;43.29
32109;BME280;18624;50.042;8.436;2023-04-26T12:15:46;100511.72;;;11.23;44.50
32109;BME280;18624;50.042;8.436;2023-04-26T12:18:13;100572.75;;;11.76;44.36
32109;BME280;18624;50.042;8.436;2023-04-26T12:20:41;100559.03;;;11.76;43.92
32109;BME280;18624;50.042;8.436;2023-04-26T12:23:09;100550.53;;;11.71;43.42
32109;BME280;18624;50.042;8.436;2023-04-26T12:25:38;100591.34;;;12.01;43.77
32109;BME280;18624;50.042;8.436;2023-04-26T12:28:10;100603.53;;;12.00;43.20
32109;BME280;18624;50.042;8.436;2023-04-26T12:30:40;100569.75;;;11.87;43.70
32109;BME280;18624;50.042;8.436;2023-04-26T12:33:06;100564.34;;;11.83;42.30
32109;BME280;18624;50.042;8.436;2023-04-26T12:35:42;100538.97;;;11.63;43.42
32109;BME280;18624;50.042;8.436;2023-04-26T12:38:09;100534.16;;;11.67;44.54
32109;BME280;18624;50.042;8.436;2023-04-26T12:40:36;100583.88;;;12.02;43.97
32109;BME280;18624;50.042;8.436;2023-04-26T12:43:03;100537.47;;;11.75;43.96
32109;BME280;18624;50.042;8.436;2023-04-26T12:45:29;100600.16;;;12.25;44.12
32109;BME280;18624;50.042;8.436;2023-04-26T12:47:55;100591.31;;;12.18;44.75
32109;BME280;18624;50.042;8.436;2023-04-26T12:50:22;100598.16;;;12.26;44.05
32109;BME280;18624;50.042;8.436;2023-04-26T12:52:49;100600.47;;;12.27;44.44
32109;BME280;18624;50.042;8.436;2023-04-26T12:55:15;100579.66;;;12.13;44.33
32109;BME280;18624;50.042;8.436;2023-04-26T12:57:43;100578.28;;;12.05;44.88
32109;BME280;18624;50.042;8.436;2023-04-26T13:00:12;100593.28;;;12.17;46.15
32109;BME280;18624;50.042;8.436;2023-04-26T13:02:39;100597.13;;;12.20;45.35
32109;BME280;18624;50.042;8.436;2023-04-26T13:05:07;100598.69;;;12.21;44.82
32109;BME280;18624;50.042;8.436;2023-04-26T13:07:35;100553.84;;;11.95;43.40
32109;BME280;18624;50.042;8.436;2023-04-26T13:10:03;100543.13;;;11.84;42.65
32109;BME280;18624;50.042;8.436;2023-04-26T13:12:30;100592.75;;;12.22;42.81
32109;BME280;18624;50.042;8.436;2023-04-26T13:14:57;100495.66;;;11.54;42.82
32109;BME280;18624;50.042;8.436;2023-04-26T13:17:24;100556.16;;;11.96;41.76
32109;BME280;18624;50.042;8.436;2023-04-26T13:19:51;100467.91;;;11.36;43.19
32109;BME280;18624;50.042;8.436;2023-04-26T13:22:19;100598.25;;;12.22;42.63